地図

経路データ

SID SEASON NUMBER BASIN SUBBASIN NAME ISO_TIME NATURE LAT LON WMO_WIND WMO_PRES WMO_AGENCY TRACK_TYPE DIST2LAND LANDFALL IFLAG USA_AGENCY USA_ATCF_ID USA_LAT USA_LON USA_RECORD USA_STATUS USA_WIND USA_PRES USA_SSHS USA_R34_NE USA_R34_SE USA_R34_SW USA_R34_NW USA_R50_NE USA_R50_SE USA_R50_SW USA_R50_NW USA_R64_NE USA_R64_SE USA_R64_SW USA_R64_NW USA_POCI USA_ROCI USA_RMW USA_EYE TOKYO_LAT TOKYO_LON TOKYO_GRADE TOKYO_WIND TOKYO_PRES TOKYO_R50_DIR TOKYO_R50_LONG TOKYO_R50_SHORT TOKYO_R30_DIR TOKYO_R30_LONG TOKYO_R30_SHORT TOKYO_LAND CMA_LAT CMA_LON CMA_CAT CMA_WIND CMA_PRES HKO_LAT HKO_LON HKO_CAT HKO_WIND HKO_PRES NEWDELHI_LAT NEWDELHI_LON NEWDELHI_GRADE NEWDELHI_WIND NEWDELHI_PRES NEWDELHI_CI NEWDELHI_DP NEWDELHI_POCI REUNION_LAT REUNION_LON REUNION_TYPE REUNION_WIND REUNION_PRES REUNION_TNUM REUNION_CI REUNION_RMW REUNION_R34_NE REUNION_R34_SE REUNION_R34_SW REUNION_R34_NW REUNION_R50_NE REUNION_R50_SE REUNION_R50_SW REUNION_R50_NW REUNION_R64_NE REUNION_R64_SE REUNION_R64_SW REUNION_R64_NW BOM_LAT BOM_LON BOM_TYPE BOM_WIND BOM_PRES BOM_TNUM BOM_CI BOM_RMW BOM_R34_NE BOM_R34_SE BOM_R34_SW BOM_R34_NW BOM_R50_NE BOM_R50_SE BOM_R50_SW BOM_R50_NW BOM_R64_NE BOM_R64_SE BOM_R64_SW BOM_R64_NW BOM_ROCI BOM_POCI BOM_EYE BOM_POS_METHOD BOM_PRES_METHOD NADI_LAT NADI_LON NADI_CAT NADI_WIND NADI_PRES WELLINGTON_LAT WELLINGTON_LON WELLINGTON_WIND WELLINGTON_PRES DS824_LAT DS824_LON DS824_STAGE DS824_WIND DS824_PRES TD9636_LAT TD9636_LON TD9636_STAGE TD9636_WIND TD9636_PRES TD9635_LAT TD9635_LON TD9635_WIND TD9635_PRES TD9635_ROCI NEUMANN_LAT NEUMANN_LON NEUMANN_CLASS NEUMANN_WIND NEUMANN_PRES MLC_LAT MLC_LON MLC_CLASS MLC_WIND MLC_PRES USA_GUST BOM_GUST BOM_GUST_PER REUNION_GUST REUNION_GUST_PER USA_SEAHGT USA_SEARAD_NE USA_SEARAD_SE USA_SEARAD_SW USA_SEARAD_NW STORM_SPEED STORM_DIR
1984180N10258 1984 42 EP MM ELIDA 1984-06-28 00:00:00 TS 10.1000 -101.800 25 hurdat_epa main 773 773 O_________O___ hurdat_epa EP051984 10.1000 -101.800 TD 25 -1 10.1000 -101.800 1 25 8 277
1984180N10258 1984 42 EP MM ELIDA 1984-06-28 03:00:00 TS 10.1482 -102.201 main 786 776 P_________P___ EP051984 10.1376 -102.210 TD 25 -1 10.1800 -102.175 1 25 8 278
1984180N10258 1984 42 EP MM ELIDA 1984-06-28 06:00:00 TS 10.2145 -102.587 25 hurdat_epa main 792 791 O_________P___ hurdat_epa EP051984 10.2000 -102.600 TD 25 -1 10.2578 -102.550 1 25 8 282
1984180N10258 1984 42 EP MM ELIDA 1984-06-28 09:00:00 TS 10.3079 -102.949 main 795 795 P_________P___ EP051984 10.2999 -102.957 TD 25 -1 10.3317 -102.925 1 25 7 285
1984180N10258 1984 42 EP MM ELIDA 1984-06-28 12:00:00 TS 10.4000 -103.300 25 hurdat_epa main 805 805 O_________O___ hurdat_epa EP051984 10.4000 -103.300 TD 25 -1 10.4000 -103.300 1 25 7 281
1984180N10258 1984 42 EP MM ELIDA 1984-06-28 15:00:00 TS 10.4427 -103.651 main 821 811 P_________P___ EP051984 10.4349 -103.643 TD 25 -1 10.4658 -103.675 1 26 7 279
1984180N10258 1984 42 EP MM ELIDA 1984-06-28 18:00:00 TS 10.5131 -104.013 25 hurdat_epa main 823 816 O_________P___ hurdat_epa EP051984 10.5000 -104.000 TD 25 -1 10.5523 -104.051 1 27 8 286
1984180N10258 1984 42 EP MM ELIDA 1984-06-28 21:00:00 TS 10.6575 -104.401 main 820 814 P_________P___ EP051984 10.6475 -104.393 TD 27 -1 10.6877 -104.426 1 28 9 297
1984180N10258 1984 42 EP MM ELIDA 1984-06-29 00:00:00 TS 10.9000 -104.800 30 hurdat_epa main 820 807 O_________O___ hurdat_epa EP051984 10.9000 -104.800 TD 30 -1 10.9000 -104.800 1 30 10 307
1984180N10258 1984 42 EP MM ELIDA 1984-06-29 03:00:00 TS 11.2597 -105.201 main 800 771 P_________P___ EP051984 11.2700 -105.207 TD 30 -1 11.2290 -105.183 1 31 11 315
1984180N10258 1984 42 EP MM ELIDA 1984-06-29 06:00:00 TS 11.6831 -105.591 30 hurdat_epa main 771 740 O_________P___ hurdat_epa EP051984 11.7000 -105.600 TD 30 -1 11.6325 -105.565 1 32 11 319
1984180N10258 1984 42 EP MM ELIDA 1984-06-29 09:00:00 TS 12.0980 -105.953 main 744 715 P_________P___ EP051984 12.1074 -105.958 TD 32 -1 12.0697 -105.939 1 33 11 320
1984180N10258 1984 42 EP MM ELIDA 1984-06-29 12:00:00 TS 12.5000 -106.300 35 hurdat_epa main 715 699 O_________O___ hurdat_epa EP051984 12.5000 -106.300 TS 35 0 12.5000 -106.300 2 35 10 318
1984180N10258 1984 42 EP MM ELIDA 1984-06-29 15:00:00 TS 12.8673 -106.652 main 694 676 P_________P___ EP051984 12.8575 -106.658 TS 40 0 12.8966 -106.633 2 41 10 317
1984180N10258 1984 42 EP MM ELIDA 1984-06-29 18:00:00 TS 13.2187 -106.988 45 hurdat_epa main 682 664 O_________P___ hurdat_epa EP051984 13.2000 -107.000 TS 45 0 13.2747 -106.954 2 47 10 319
1984180N10258 1984 42 EP MM ELIDA 1984-06-29 21:00:00 TS 13.5832 -107.293 main 664 652 P_________P___ EP051984 13.5724 -107.300 TS 52 0 13.6154 -107.272 2 53 9 319
1984180N10258 1984 42 EP MM ELIDA 1984-06-30 00:00:00 TS 13.9000 -107.600 60 hurdat_epa main 659 654 O_________O___ hurdat_epa EP051984 13.9000 -107.600 TS 60 0 13.9000 -107.600 2 60 8 311
1984180N10258 1984 42 EP MM ELIDA 1984-06-30 03:00:00 TS 14.1281 -107.936 main 659 655 P_________P___ EP051984 14.1299 -107.935 TS 67 1 14.1227 -107.940 2 67 8 301
1984180N10258 1984 42 EP MM ELIDA 1984-06-30 06:00:00 TS 14.3000 -108.300 75 hurdat_epa main 662 659 O_________O___ hurdat_epa EP051984 14.3000 -108.300 HU 75 1 14.3000 -108.300 3 75 8 294
1984180N10258 1984 42 EP MM ELIDA 1984-06-30 09:00:00 TS 14.4514 -108.693 main 669 669 P_________P___ EP051984 14.4500 -108.693 HU 77 1 14.4557 -108.694 3 77 8 291
1984180N10258 1984 42 EP MM ELIDA 1984-06-30 12:00:00 TS 14.6000 -109.100 80 hurdat_epa main 688 687 O_________O___ hurdat_epa EP051984 14.6000 -109.100 HU 80 1 14.6000 -109.100 4 80 9 294
1984180N10258 1984 42 EP MM ELIDA 1984-06-30 15:00:00 TS 14.7938 -109.503 main 701 701 P_________P___ EP051984 14.8000 -109.507 HU 85 2 14.7753 -109.488 4 86 9 297
1984180N10258 1984 42 EP MM ELIDA 1984-06-30 18:00:00 TS 14.9900 -109.892 90 hurdat_epa main 716 716 O_________P___ hurdat_epa EP051984 15.0000 -109.900 HU 90 2 14.9600 -109.867 4 92 8 297
1984180N10258 1984 42 EP MM ELIDA 1984-06-30 21:00:00 TS 15.1586 -110.247 main 723 723 P_________P___ EP051984 15.1649 -110.250 HU 97 3 15.1398 -110.237 4 98 8 294
1984180N10258 1984 42 EP MM ELIDA 1984-07-01 00:00:00 TS 15.3000 -110.600 105 hurdat_epa main 747 747 O_________O___ hurdat_epa EP051984 15.3000 -110.600 HU 105 3 15.3000 -110.600 4 105 8 289
1984180N10258 1984 42 EP MM ELIDA 1984-07-01 03:00:00 TS 15.4120 -110.993 main 772 772 P_________P___ EP051984 15.4075 -111.008 HU 107 3 15.4253 -110.949 4 107 8 286
1984180N10258 1984 42 EP MM ELIDA 1984-07-01 06:00:00 TS 15.5074 -111.373 110 hurdat_epa main 799 799 O_________P___ hurdat_epa EP051984 15.5000 -111.400 HU 110 3 15.5296 -111.293 4 110 7 286
1984180N10258 1984 42 EP MM ELIDA 1984-07-01 09:00:00 TS 15.6046 -111.685 main 818 818 P_________P___ EP051984 15.5998 -111.700 HU 112 3 15.6190 -111.640 4 112 6 288
1984180N10258 1984 42 EP MM ELIDA 1984-07-01 12:00:00 TS 15.7000 -112.000 115 hurdat_epa main 832 827 O_________O___ hurdat_epa EP051984 15.7000 -112.000 HU 115 4 15.7000 -112.000 4 115 7 286
1984180N10258 1984 42 EP MM ELIDA 1984-07-01 15:00:00 TS 15.8022 -112.386 main 833 829 P_________P___ EP051984 15.8075 -112.385 HU 112 3 15.7862 -112.390 4 110 8 284
1984180N10258 1984 42 EP MM ELIDA 1984-07-01 18:00:00 TS 15.8912 -112.798 110 hurdat_epa main 836 836 O_________P___ hurdat_epa EP051984 15.9000 -112.800 HU 110 3 15.8649 -112.793 4 105 8 281
1984180N10258 1984 42 EP MM ELIDA 1984-07-01 21:00:00 TS 15.9521 -113.205 main 841 841 P_________P___ EP051984 15.9575 -113.208 HU 102 3 15.9362 -113.199 4 100 8 278
1984180N10258 1984 42 EP MM ELIDA 1984-07-02 00:00:00 TS 16.0000 -113.600 95 hurdat_epa main 859 859 O_________O___ hurdat_epa EP051984 16.0000 -113.600 HU 95 2 16.0000 -113.600 4 95 7 278
1984180N10258 1984 42 EP MM ELIDA 1984-07-02 03:00:00 TS 16.0496 -113.955 main 878 868 P_________P___ EP051984 16.0499 -113.950 HU 92 2 16.0486 -113.970 4 92 7 278
1984180N10258 1984 42 EP MM ELIDA 1984-07-02 06:00:00 TS 16.0980 -114.309 90 hurdat_epa main 883 883 O_________P___ hurdat_epa EP051984 16.1000 -114.300 HU 90 2 16.0919 -114.335 4 90 7 277
1984180N10258 1984 42 EP MM ELIDA 1984-07-02 09:00:00 TS 16.1416 -114.691 main 905 902 P_________P___ EP051984 16.1424 -114.685 HU 87 2 16.1392 -114.708 4 87 8 278
1984180N10258 1984 42 EP MM ELIDA 1984-07-02 12:00:00 TS 16.2000 -115.100 85 hurdat_epa main 920 920 O_________O___ hurdat_epa EP051984 16.2000 -115.100 HU 85 2 16.2000 -115.100 4 85 8 280
1984180N10258 1984 42 EP MM ELIDA 1984-07-02 15:00:00 TS 16.2907 -115.539 main 936 936 P_________P___ EP051984 16.2925 -115.542 HU 90 2 16.2856 -115.528 4 88 9 283
1984180N10258 1984 42 EP MM ELIDA 1984-07-02 18:00:00 TS 16.3962 -115.994 95 hurdat_epa main 960 960 O_________P___ hurdat_epa EP051984 16.4000 -116.000 HU 95 2 16.3849 -115.977 4 92 9 283
1984180N10258 1984 42 EP MM ELIDA 1984-07-02 21:00:00 TS 16.4979 -116.447 main 980 980 P_________P___ EP051984 16.4999 -116.450 HU 97 3 16.4918 -116.438 4 96 9 283
1984180N10258 1984 42 EP MM ELIDA 1984-07-03 00:00:00 TS 16.6000 -116.900 100 hurdat_epa main 1008 1008 O_________O___ hurdat_epa EP051984 16.6000 -116.900 HU 100 3 16.6000 -116.900 4 100 9 283
1984180N10258 1984 42 EP MM ELIDA 1984-07-03 03:00:00 TS 16.7039 -117.349 main 1031 1031 P_________P___ EP051984 16.6999 -117.350 HU 100 3 16.7159 -117.346 4 100 9 284
1984180N10258 1984 42 EP MM ELIDA 1984-07-03 06:00:00 TS 16.8074 -117.798 100 hurdat_epa main 1062 1062 O_________P___ hurdat_epa EP051984 16.8000 -117.800 HU 100 3 16.8295 -117.792 4 100 9 284
1984180N10258 1984 42 EP MM ELIDA 1984-07-03 09:00:00 TS 16.9183 -118.248 main 1077 1077 P_________P___ EP051984 16.9149 -118.250 HU 100 3 16.9284 -118.243 4 100 9 283
1984180N10258 1984 42 EP MM ELIDA 1984-07-03 12:00:00 TS 17.0000 -118.700 100 hurdat_epa main 1100 1100 O_________O___ hurdat_epa EP051984 17.0000 -118.700 HU 100 3 17.0000 -118.700 4 100 9 277
1984180N10258 1984 42 EP MM ELIDA 1984-07-03 15:00:00 TS 17.0204 -119.154 main 1133 1133 P_________P___ EP051984 17.0149 -119.143 HU 100 3 17.0369 -119.188 4 98 9 271
1984180N10258 1984 42 EP MM ELIDA 1984-07-03 18:00:00 TS 17.0113 -119.620 100 hurdat_epa main 1160 1160 O_________P___ hurdat_epa EP051984 17.0000 -119.600 HU 100 3 17.0451 -119.680 4 97 9 270
1984180N10258 1984 42 EP MM ELIDA 1984-07-03 21:00:00 TS 17.0133 -120.120 main 1196 1196 P_________P___ EP051984 17.0075 -120.107 HU 97 3 17.0307 -120.157 4 96 9 269
1984180N10258 1984 42 EP MM ELIDA 1984-07-04 00:00:00 TS 17.0000 -120.600 95 hurdat_epa main 1232 1232 O_________O___ hurdat_epa EP051984 17.0000 -120.600 HU 95 2 17.0000 -120.600 4 95 9 266
1984180N10258 1984 42 EP MM ELIDA 1984-07-04 03:00:00 TS 16.9591 -121.025 main 1262 1262 P_________P___ EP051984 16.9574 -121.030 HU 90 2 16.9641 -121.010 4 87 8 263
1984180N10258 1984 42 EP MM ELIDA 1984-07-04 06:00:00 TS 16.9037 -121.396 85 hurdat_epa main 1300 1300 O_________P___ hurdat_epa EP051984 16.9000 -121.400 HU 85 2 16.9147 -121.383 4 80 7 261
1984180N10258 1984 42 EP MM ELIDA 1984-07-04 09:00:00 TS 16.8519 -121.720 main 1323 1323 P_________P___ EP051984 16.8499 -121.722 HU 75 1 16.8580 -121.714 4 72 6 260
1984180N10258 1984 42 EP MM ELIDA 1984-07-04 12:00:00 TS 16.8000 -122.000 65 hurdat_epa main 1354 1354 O_________O___ hurdat_epa EP051984 16.8000 -122.000 HU 65 1 16.8000 -122.000 4 65 5 260
1984180N10258 1984 42 EP MM ELIDA 1984-07-04 15:00:00 TS 16.7550 -122.268 main 1378 1378 P_________P___ EP051984 16.7500 -122.272 HU 60 0 16.7700 -122.255 4 61 5 259
1984180N10258 1984 42 EP MM ELIDA 1984-07-04 18:00:00 TS 16.7093 -122.492 55 hurdat_epa main 1401 1401 O_________P___ hurdat_epa EP051984 16.7000 -122.500 TS 55 0 16.7372 -122.467 4 57 4 257
1984180N10258 1984 42 EP MM ELIDA 1984-07-04 21:00:00 TS 16.6702 -122.660 main 1417 1417 P_________P___ EP051984 16.6650 -122.665 TS 52 0 16.6858 -122.646 4 53 3 250
1984180N10258 1984 42 EP MM ELIDA 1984-07-05 00:00:00 TS 16.6000 -122.800 50 hurdat_epa main 1432 1432 O_________O___ hurdat_epa EP051984 16.6000 -122.800 TS 50 0 16.6000 -122.800 2 50 3 235
1984180N10258 1984 42 EP MM ELIDA 1984-07-05 03:00:00 TS 16.4706 -122.956 main 1456 1456 P_________P___ EP051984 16.4725 -122.958 TS 47 0 16.4649 -122.951 2 48 4 223
1984180N10258 1984 42 EP MM ELIDA 1984-07-05 06:00:00 TS 16.2987 -123.095 45 hurdat_epa main 1478 1478 O_________P___ hurdat_epa EP051984 16.3000 -123.100 TS 45 0 16.2949 -123.080 2 47 4 213
1984180N10258 1984 42 EP MM ELIDA 1984-07-05 09:00:00 TS 16.1062 -123.204 main 1501 1501 P_________P___ EP051984 16.1075 -123.207 TS 45 0 16.1024 -123.194 2 46 4 207
1984180N10258 1984 42 EP MM ELIDA 1984-07-05 12:00:00 TS 15.9000 -123.300 45 hurdat_epa main 1524 1524 O_________O___ hurdat_epa EP051984 15.9000 -123.300 TS 45 0 15.9000 -123.300 2 45 5 205
1984180N10258 1984 42 EP MM ELIDA 1984-07-05 15:00:00 TS 15.6967 -123.407 main 1547 1547 P_________P___ EP051984 15.7000 -123.400 TS 42 0 15.6869 -123.428 2 41 5 206
1984180N10258 1984 42 EP MM ELIDA 1984-07-05 18:00:00 TS 15.4925 -123.511 40 hurdat_epa main 1571 1571 O_________P___ hurdat_epa EP051984 15.5000 -123.500 TS 40 0 15.4700 -123.545 2 37 5 206
1984180N10258 1984 42 EP MM ELIDA 1984-07-05 21:00:00 TS 15.2752 -123.621 main 1594 1594 P_________P___ EP051984 15.2775 -123.615 TS 35 0 15.2681 -123.640 2 33 4 205
1984180N10258 1984 42 EP MM ELIDA 1984-07-06 00:00:00 TS 15.1000 -123.700 30 hurdat_epa main 1617 1617 O_________O___ hurdat_epa EP051984 15.1000 -123.700 TD 30 -1 15.1000 -123.700 1 30 3 201
1984180N10258 1984 42 EP MM ELIDA 1984-07-06 03:00:00 TS 15.0184 -123.725 main 1625 1625 P_________P___ EP051984 15.0350 -123.722 TD 30 -1 14.9687 -123.731 1 30 1 0
1984180N10258 1984 42 EP MM ELIDA 1984-07-06 06:00:00 TS 14.9687 -123.706 30 hurdat_epa main 1625 1625 O_________P___ hurdat_epa EP051984 15.0000 -123.700 TD 30 -1 14.8749 -123.725 1 30 2 168
1984180N10258 1984 42 EP MM ELIDA 1984-07-06 09:00:00 TS 14.8684 -123.675 main 1633 1633 P_________P___ EP051984 14.8850 -123.672 TD 30 -1 14.8187 -123.681 1 30 2 149
1984180N10258 1984 42 EP MM ELIDA 1984-07-06 12:00:00 TS 14.8000 -123.600 30 hurdat_epa main 1633 1625 O_________O___ hurdat_epa EP051984 14.8000 -123.600 TD 30 -1 14.8000 -123.600 1 30 2 103
1984180N10258 1984 42 EP MM ELIDA 1984-07-06 15:00:00 TS 14.8241 -123.474 main 1625 1602 P_________P___ EP051984 14.8275 -123.465 TD 30 -1 14.8140 -123.502 1 30 3 72
1984180N10258 1984 42 EP MM ELIDA 1984-07-06 18:00:00 TS 14.8906 -123.317 30 hurdat_epa main 1602 1595 O_________P___ hurdat_epa EP051984 14.9000 -123.300 TD 30 -1 14.8624 -123.368 1 30 3 68
1984180N10258 1984 42 EP MM ELIDA 1984-07-06 21:00:00 TS 14.9449 -123.168 main 1595 1572 P_________P___ EP051984 14.9500 -123.157 TD 30 -1 14.9296 -123.199 1 30 3 70
1984180N10258 1984 42 EP MM ELIDA 1984-07-07 00:00:00 TS 15.0000 -123.000 30 hurdat_epa main 1572 1557 O_________O___ hurdat_epa EP051984 15.0000 -123.000 TD 30 -1 15.0000 -123.000 1 30 4 73
1984180N10258 1984 42 EP MM ELIDA 1984-07-07 03:00:00 TS 15.0499 -122.818 main 1557 1534 P_________P___ EP051984 15.0500 -122.822 TD 27 -1 15.0498 -122.803 1 28 4 76
1984180N10258 1984 42 EP MM ELIDA 1984-07-07 06:00:00 TS 15.0999 -122.594 25 hurdat_epa main 1534 1511 O_________P___ hurdat_epa EP051984 15.1000 -122.600 TD 25 -1 15.0997 -122.575 1 27 5 78
1984180N10258 1984 42 EP MM ELIDA 1984-07-07 09:00:00 TS 15.1499 -122.325 main 1511 1481 P_________P___ EP051984 15.1499 -122.330 TD 25 -1 15.1497 -122.309 1 26 6 80
1984180N10258 1984 42 EP MM ELIDA 1984-07-07 12:00:00 TS 15.2000 -122.000 25 hurdat_epa main 1481 1460 O_________O___ hurdat_epa EP051984 15.2000 -122.000 TD 25 -1 15.2000 -122.000 1 25 7 81
1984180N10258 1984 42 EP MM ELIDA 1984-07-07 15:00:00 TS 15.2498 -121.638 main 1453 1423 P_________P___ EP051984 15.2500 -121.615 TD 25 -1 15.2491 -121.708 1 25 7 82
1984180N10258 1984 42 EP MM ELIDA 1984-07-07 18:00:00 TS 15.2996 -121.241 25 hurdat_epa main 1416 1387 O_________P___ hurdat_epa EP051984 15.3000 -121.200 TD 25 -1 15.2984 -121.365 1 25 8 82
1984180N10258 1984 42 EP MM ELIDA 1984-07-07 21:00:00 TS 15.3552 -120.840 main 1380 1353 P_________P___ EP051984 15.3574 -120.808 TD 25 -1 15.3486 -120.939 1 25 8 83
1984180N10258 1984 42 EP MM ELIDA 1984-07-08 00:00:00 TS 15.4000 -120.400 25 hurdat_epa main 1353 1326 O_________O___ hurdat_epa EP051984 15.4000 -120.400 TD 25 -1 15.4000 -120.400 1 25 8 87
1984180N10258 1984 42 EP MM ELIDA 1984-07-08 03:00:00 TS 15.4036 -119.968 main 1326 1288 P_________P___ EP051984 15.3915 -120.062 TD 25 -1 15.4401 -119.687 1 25 10 89
1984180N10258 1984 42 EP MM ELIDA 1984-07-08 06:00:00 TS 15.4203 -119.342 25 hurdat_epa main 1282 1208 O_________P___ hurdat_epa EP051984 15.4000 -119.500 TD 25 -1 15.4812 -118.868 1 25 16 87
1984180N10258 1984 42 EP MM ELIDA 1984-07-08 09:00:00 TS 15.4978 -118.295 main 1201 1119 P_________P___ EP051984 15.4866 -118.388 TD 25 -1 15.5313 -118.015 1 25 21 85
1984180N10258 1984 42 EP MM ELIDA 1984-07-08 12:00:00 TS 15.6000 -117.200 25 hurdat_epa main 1112 1048 O_________O___ hurdat_epa EP051984 15.6000 -117.200 TD 25 -1 15.6000 -117.200 1 25 18 84
1984180N10258 1984 42 EP MM ELIDA 1984-07-08 15:00:00 TS 15.7013 -116.400 main 1048 1000 P_________P___ EP051984 15.7040 -116.375 TD 25 -1 15.6932 -116.473 1 25 14 82
1984180N10258 1984 42 EP MM ELIDA 1984-07-08 18:00:00 TS 15.8000 -115.800 25 hurdat_epa main 1000 O_________O___ hurdat_epa EP051984 15.8000 -115.800 TD 25 -1 15.8000 -115.800 1 25 12 80

IBTrACS Databaseについて

本データベースは、米国NOAAが公開する1842年以降の世界の熱帯低気圧のベストトラックデータアーカイブInternational Best Track Archive for Climate Stewardship (IBTrACS)を、ウェブで閲覧しやすい形式に変換したものです。

最終更新日:2021-10-27